Kotoyarvi — UEGW — position and weather

sailwx.info

Track history (hours):
 
Tides and Currents Weather Stations Pressure Air Temp Water Temp Dewpoint Dewpoint Depression Visibility Wind Speed Wind Dir Waves Ship Positions

Kotoyarvi

Last reported at 2017-Dec-11 17:00 UTC. Time now 2017-Dec-14 15:21 UTC.
Position N 69°44' E 030°05'.

Length 45 m; draft 4.4 m.

Type: Fishing. MMSI: 273440730.

Date/timePositionNaut miles runAvg speedWind from/ knotsBaromVisibWave heightAir tempDewpointWater temp
2017-Dec-11 17:00N 69°44' E 030°05'0 0.0
2017-Dec-11 16:30N 69°44' E 030°05'0 0.0
2017-Dec-11 15:58N 69°44' E 030°05'0 0.0
2017-Dec-11 15:29N 69°44' E 030°05'0 0.0
2017-Dec-11 15:00N 69°44' E 030°05'0 0.0
2017-Dec-11 14:30N 69°44' E 030°05'0 0.0
2017-Dec-11 13:58N 69°44' E 030°05'0 0.0
2017-Dec-11 13:28N 69°44' E 030°05'0 0.0
2017-Dec-11 13:00N 69°44' E 030°05'0 0.0
2017-Dec-11 12:30N 69°44' E 030°05'0 0.0
2017-Dec-11 12:00N 69°44' E 030°05'0 0.0
2017-Dec-11 11:28N 69°44' E 030°05'0 0.0
2017-Dec-11 11:00N 69°44' E 030°05'0 0.0
2017-Dec-11 10:30N 69°44' E 030°05'3 6.4
2017-Dec-11 10:00N 69°47' E 030°05'5 9.4
2017-Dec-11 09:30N 69°52' E 030°07'4 8.8
2017-Dec-11 09:00N 69°55' E 030°14'5 9.5
2017-Dec-11 08:30N 69°57' E 030°26'5 9.6
2017-Dec-11 08:00N 69°60' E 030°39'5 9.7
2017-Dec-11 07:30N 70°02' E 030°51'5 9.9
2017-Dec-11 07:00N 70°04' E 031°04'5 9.7
2017-Dec-11 06:30N 70°06' E 031°17'5 9.7
2017-Dec-11 06:00N 70°09' E 031°29'5 9.9
2017-Dec-11 05:30N 70°10' E 031°44'510.4
2017-Dec-11 05:00N 70°10' E 031°59'71 8.1
2017-Dec-10 20:17N 69°03' E 033°05'2 5.9
2017-Dec-10 20:00N 69°02' E 033°03'3 6.1
2017-Dec-10 19:31N 68°59' E 033°02'2 4.5
2017-Dec-10 18:58N 68°56' E 033°02'0 0.0
2017-Dec-10 18:28N 68°56' E 033°02'0 0.0
2017-Dec-10 17:58N 68°56' E 033°02'0 0.0
2017-Dec-10 17:28N 68°56' E 033°02'0 0.0
2017-Dec-10 16:58N 68°56' E 033°02'0 0.0
2017-Dec-10 16:28N 68°56' E 033°02'0 0.0
2017-Dec-10 15:58N 68°56' E 033°02'0 0.0
2017-Dec-10 15:28N 68°56' E 033°02'0 0.0
2017-Dec-10 14:58N 68°56' E 033°02'0 0.0
2017-Dec-10 14:28N 68°56' E 033°02'0 0.0
2017-Dec-10 13:58N 68°56' E 033°02'0 0.0
2017-Dec-10 13:28N 68°56' E 033°02'0 0.0
2017-Dec-10 12:58N 68°56' E 033°02'0 0.0
2017-Dec-10 12:28N 68°56' E 033°02'0 0.0
2017-Dec-10 11:58N 68°56' E 033°02'0 0.0
2017-Dec-10 11:28N 68°56' E 033°02'0 0.0
2017-Dec-10 10:58N 68°56' E 033°02'0 0.0
2017-Dec-10 10:28N 68°56' E 033°02'0 0.0
2017-Dec-10 09:58N 68°56' E 033°02'0 0.0
2017-Dec-10 09:25N 68°56' E 033°02'0 0.0
2017-Dec-10 08:58N 68°56' E 033°02'0 0.0
2017-Dec-10 08:28N 68°56' E 033°02'0 0.0
2017-Dec-10 07:58N 68°56' E 033°02'0 0.0
2017-Dec-10 07:28N 68°56' E 033°02'0 0.0
2017-Dec-10 06:58N 68°56' E 033°02'0 0.0
2017-Dec-10 06:28N 68°56' E 033°02'0 0.0
2017-Dec-10 05:58N 68°56' E 033°02'0 0.0
2017-Dec-10 05:28N 68°56' E 033°02'0 0.0
2017-Dec-10 04:58N 68°56' E 033°02'0 0.0
2017-Dec-10 04:28N 68°56' E 033°02'0 0.0
2017-Dec-10 03:58N 68°56' E 033°02'0 0.0
2017-Dec-10 03:28N 68°56' E 033°02'0 0.0
2017-Dec-10 02:58N 68°56' E 033°02'0 0.0
2017-Dec-10 02:28N 68°56' E 033°02'0 0.0
2017-Dec-10 01:58N 68°56' E 033°02'0 0.0
2017-Dec-10 01:28N 68°56' E 033°02'0 0.0
2017-Dec-10 00:58N 68°56' E 033°02'0 0.0
2017-Dec-10 00:28N 68°56' E 033°02'0 0.0
2017-Dec-09 23:58N 68°56' E 033°02'0 0.0
2017-Dec-09 23:28N 68°56' E 033°02'0 0.0
2017-Dec-09 22:55N 68°56' E 033°02'0 0.0
2017-Dec-09 22:28N 68°56' E 033°02'0 0.0
2017-Dec-09 21:58N 68°56' E 033°02'0 0.0
2017-Dec-09 21:28N 68°56' E 033°02'0 0.0
2017-Dec-09 20:58N 68°56' E 033°02'0 0.0
2017-Dec-09 20:28N 68°56' E 033°02'0 0.0
2017-Dec-09 19:58N 68°56' E 033°02'0 0.0
2017-Dec-09 19:28N 68°56' E 033°02'0 0.0
2017-Dec-09 18:58N 68°56' E 033°02'0 0.0
2017-Dec-09 18:28N 68°56' E 033°02'0 0.0
2017-Dec-09 17:58N 68°56' E 033°02'0 0.0
2017-Dec-09 17:28N 68°56' E 033°02'0 0.0
2017-Dec-09 16:58N 68°56' E 033°02'0 0.0
2017-Dec-09 16:28N 68°56' E 033°02'0 0.0
2017-Dec-09 15:58N 68°56' E 033°02'0 0.0
2017-Dec-09 15:28N 68°56' E 033°02'0 0.0
2017-Dec-09 14:58N 68°56' E 033°02'0 0.0
2017-Dec-09 14:28N 68°56' E 033°02'0 0.0
2017-Dec-09 13:58N 68°56' E 033°02'0 0.0
2017-Dec-09 13:28N 68°56' E 033°02'0 0.0
2017-Dec-09 12:58N 68°56' E 033°02'0 0.0
2017-Dec-09 12:28N 68°56' E 033°02'0 0.0
2017-Dec-09 11:58N 68°56' E 033°02'0 0.0
2017-Dec-09 11:25N 68°56' E 033°02'0 0.0
2017-Dec-09 10:58N 68°56' E 033°02'0 0.0
2017-Dec-09 10:28N 68°56' E 033°02'0 0.0
2017-Dec-09 09:58N 68°56' E 033°02'0 0.0
2017-Dec-09 09:28N 68°56' E 033°02'0 0.0
2017-Dec-09 08:58N 68°56' E 033°02'0 0.0
2017-Dec-09 08:28N 68°56' E 033°02'0 0.0
2017-Dec-09 07:58N 68°56' E 033°02'0 0.0
2017-Dec-09 07:28N 68°56' E 033°02'0 0.0
2017-Dec-09 06:58N 68°56' E 033°02'0 0.0
2017-Dec-09 06:28N 68°56' E 033°02'0 0.0
2017-Dec-09 05:58N 68°56' E 033°02'0 0.0
2017-Dec-09 05:28N 68°56' E 033°02'0 0.0
2017-Dec-09 04:58N 68°56' E 033°02'0 0.0
2017-Dec-09 04:28N 68°56' E 033°02'0 0.0
2017-Dec-09 03:58N 68°56' E 033°02'0 0.0
2017-Dec-09 03:28N 68°56' E 033°02'0 0.0
2017-Dec-09 02:58N 68°56' E 033°02'0 0.0
2017-Dec-09 02:28N 68°56' E 033°02'0 0.0
2017-Dec-09 01:58N 68°56' E 033°02'0 0.0
2017-Dec-09 01:28N 68°56' E 033°02'0 0.0
2017-Dec-09 00:58N 68°56' E 033°02'0 0.0
2017-Dec-09 00:28N 68°56' E 033°02'0 0.0
2017-Dec-08 23:58N 68°56' E 033°02'0 0.0
2017-Dec-08 23:28N 68°56' E 033°02'0 0.0
2017-Dec-08 22:58N 68°56' E 033°02'0 0.0
2017-Dec-08 22:28N 68°56' E 033°02'0 0.0
2017-Dec-08 21:58N 68°56' E 033°02'0 0.0
2017-Dec-08 21:28N 68°56' E 033°02'0 0.0
2017-Dec-08 20:58N 68°56' E 033°02'0 0.0
2017-Dec-08 20:28N 68°56' E 033°02'0 0.0
2017-Dec-08 19:58N 68°56' E 033°02'0 0.0
2017-Dec-08 19:28N 68°56' E 033°02'0 0.0
2017-Dec-08 18:58N 68°56' E 033°02'0 0.0
2017-Dec-08 18:28N 68°56' E 033°02'0 0.0
2017-Dec-08 17:58N 68°56' E 033°02'0 0.0
2017-Dec-08 17:28N 68°56' E 033°02'0 0.0
2017-Dec-08 16:52N 68°56' E 033°02'0 0.0
2017-Dec-08 16:28N 68°56' E 033°02'0 0.0
2017-Dec-08 15:58N 68°56' E 033°02'0 0.0
2017-Dec-08 15:28N 68°56' E 033°02'0 0.0
2017-Dec-08 14:58N 68°56' E 033°02'0 0.0
2017-Dec-08 14:28N 68°56' E 033°02'0 0.0
2017-Dec-08 13:58N 68°56' E 033°02'0 0.0
2017-Dec-08 13:28N 68°56' E 033°02'0 0.0
2017-Dec-08 12:58N 68°56' E 033°02'0 0.0
2017-Dec-08 12:28N 68°56' E 033°02'0 0.0
2017-Dec-08 11:58N 68°56' E 033°02'0 0.0
2017-Dec-08 11:28N 68°56' E 033°02'0 0.0
2017-Dec-08 10:58N 68°56' E 033°02'0 0.0
2017-Dec-08 10:28N 68°56' E 033°02'0 0.0
2017-Dec-08 09:58N 68°56' E 033°02'0 0.0
2017-Dec-08 09:28N 68°56' E 033°02'0 0.0
2017-Dec-08 08:58N 68°56' E 033°02'0 0.0
2017-Dec-08 08:28N 68°56' E 033°02'0 0.0
2017-Dec-08 07:58N 68°56' E 033°02'0 0.0
2017-Dec-08 07:28N 68°56' E 033°02'0 0.0
2017-Dec-08 06:58N 68°56' E 033°02'0 0.0
2017-Dec-08 06:28N 68°56' E 033°02'0 0.0
2017-Dec-08 05:58N 68°56' E 033°02'0 0.1
2017-Dec-08 05:28N 68°56' E 033°02'0 0.0
2017-Dec-08 04:58N 68°56' E 033°02'0 0.0
2017-Dec-08 04:28N 68°56' E 033°02'0 0.0
2017-Dec-08 03:58N 68°56' E 033°02'0 0.0
2017-Dec-08 03:28N 68°56' E 033°02'0 0.0
2017-Dec-08 02:55N 68°56' E 033°02'0 0.0
2017-Dec-08 02:28N 68°56' E 033°02'0 0.0
2017-Dec-08 01:58N 68°56' E 033°02'0 0.0
2017-Dec-08 01:28N 68°56' E 033°02'0 0.0
2017-Dec-08 00:58N 68°56' E 033°02'0 0.0
2017-Dec-08 00:28N 68°56' E 033°02'0 0.0
2017-Dec-07 23:58N 68°56' E 033°02'0 0.0
2017-Dec-07 23:28N 68°56' E 033°02'0 0.0
2017-Dec-07 22:58N 68°56' E 033°02'0 0.0
2017-Dec-07 22:28N 68°56' E 033°02'0 0.0
2017-Dec-07 21:58N 68°56' E 033°02'0 0.0
2017-Dec-07 21:28N 68°56' E 033°02'0 0.0
2017-Dec-07 20:58N 68°56' E 033°02'0 0.0
2017-Dec-07 20:25N 68°56' E 033°02'0 0.0
2017-Dec-07 19:58N 68°56' E 033°02'0 0.0
2017-Dec-07 19:28N 68°56' E 033°02'0 0.0
2017-Dec-07 18:58N 68°56' E 033°02'0 0.0
2017-Dec-07 18:28N 68°56' E 033°02'0 0.0
2017-Dec-07 17:58N 68°56' E 033°02'0 0.0
2017-Dec-07 17:25N 68°56' E 033°02'0 0.0
2017-Dec-07 16:58N 68°56' E 033°02'0 0.0
2017-Dec-07 16:28N 68°56' E 033°02'0 0.0
2017-Dec-07 15:58N 68°56' E 033°02'0 0.0
2017-Dec-07 15:28N 68°56' E 033°02'0 0.0
2017-Dec-07 14:58N 68°56' E 033°02'0 0.0
2017-Dec-07 14:28N 68°56' E 033°02'0 0.0
2017-Dec-07 13:58N 68°56' E 033°02'0 0.0
2017-Dec-07 13:28N 68°56' E 033°02'0 0.0
2017-Dec-07 12:58N 68°56' E 033°02'0 0.0
2017-Dec-07 12:28N 68°56' E 033°02'0 0.0
2017-Dec-07 11:58N 68°56' E 033°02'0 0.0
2017-Dec-07 11:28N 68°56' E 033°02'0 0.0
2017-Dec-07 10:58N 68°56' E 033°02'0 0.0
2017-Dec-07 10:28N 68°56' E 033°02'0 0.0
2017-Dec-07 09:58N 68°56' E 033°02'0 0.0
2017-Dec-07 09:28N 68°56' E 033°02'0 0.0
2017-Dec-07 08:58N 68°56' E 033°02'0 0.0
2017-Dec-07 08:28N 68°56' E 033°02'0 0.0
2017-Dec-07 07:58N 68°56' E 033°02'0 0.0
2017-Dec-07 07:28N 68°56' E 033°02'0 0.0
2017-Dec-07 06:58N 68°56' E 033°02'0 0.0
2017-Dec-07 06:28N 68°56' E 033°02'0 0.0
2017-Dec-07 05:58N 68°56' E 033°02'0 0.0
2017-Dec-07 05:28N 68°56' E 033°02'0 0.0
2017-Dec-07 04:58N 68°56' E 033°02'0 0.0
2017-Dec-07 04:28N 68°56' E 033°02'0 0.0
2017-Dec-07 03:58N 68°56' E 033°02'0 0.0
2017-Dec-07 03:28N 68°56' E 033°02'0 0.0
2017-Dec-07 02:58N 68°56' E 033°02'0 0.0
2017-Dec-07 02:28N 68°56' E 033°02'0 0.0
2017-Dec-07 01:58N 68°56' E 033°02'0 0.0
2017-Dec-07 01:28N 68°56' E 033°02'0 0.0
2017-Dec-07 00:58N 68°56' E 033°02'0 0.0
2017-Dec-07 00:28N 68°56' E 033°02'0 0.0
2017-Dec-06 23:58N 68°56' E 033°02'0 0.0
2017-Dec-06 23:28N 68°56' E 033°02'0 0.0
2017-Dec-06 22:58N 68°56' E 033°02'0 0.0
2017-Dec-06 22:28N 68°56' E 033°02'0 0.0
2017-Dec-06 21:58N 68°56' E 033°02'0 0.0
2017-Dec-06 21:28N 68°56' E 033°02'0 0.0
2017-Dec-06 20:58N 68°56' E 033°02'  
2017-Dec-04 10:22N 68°56' E 033°02'0 0.0
2017-Dec-04 09:58N 68°56' E 033°02'0 0.0
2017-Dec-04 09:28N 68°56' E 033°02'0 0.0
2017-Dec-04 08:58N 68°56' E 033°02'0 0.0
2017-Dec-04 08:28N 68°56' E 033°02'0 0.0
2017-Dec-04 07:58N 68°56' E 033°02'0 0.0
2017-Dec-04 07:25N 68°56' E 033°02'0 0.0
2017-Dec-04 06:58N 68°56' E 033°02'0 0.0
2017-Dec-04 06:28N 68°56' E 033°02'0 0.0
2017-Dec-04 05:58N 68°56' E 033°02'0 0.0
2017-Dec-04 05:30N 68°56' E 033°02'0 0.0
2017-Dec-04 05:00N 68°56' E 033°02'0 0.0
2017-Dec-04 04:29N 68°56' E 033°02'0 0.0
2017-Dec-04 04:00N 68°56' E 033°02'0 0.0
2017-Dec-04 03:31N 68°56' E 033°02'0 0.0
2017-Dec-04 03:00N 68°56' E 033°02'0 0.0
2017-Dec-04 02:31N 68°56' E 033°02'0 0.0
2017-Dec-04 02:00N 68°56' E 033°02'0 0.0
2017-Dec-04 01:30N 68°56' E 033°02'0 0.0
2017-Dec-04 01:00N 68°56' E 033°02'0 0.0
2017-Dec-04 00:30N 68°56' E 033°02'0 0.0
2017-Dec-04 00:00N 68°56' E 033°02'0 0.0
2017-Dec-03 23:30N 68°56' E 033°02'0 0.0
2017-Dec-03 23:00N 68°56' E 033°02'0 0.0
2017-Dec-03 22:29N 68°56' E 033°02'0 0.0
2017-Dec-03 22:00N 68°56' E 033°02'0 0.0
2017-Dec-03 21:30N 68°56' E 033°02'0 0.0
2017-Dec-03 21:00N 68°56' E 033°02'0 0.0
2017-Dec-03 20:30N 68°56' E 033°02'0 0.0
2017-Dec-03 20:00N 68°56' E 033°02'0 0.0
2017-Dec-03 19:31N 68°56' E 033°02'0 0.0
2017-Dec-03 19:00N 68°56' E 033°02'0 0.0
2017-Dec-03 18:31N 68°56' E 033°02'0 0.0
2017-Dec-03 18:00N 68°56' E 033°02'0 0.0
2017-Dec-03 17:30N 68°56' E 033°02'0 0.0
2017-Dec-03 17:00N 68°56' E 033°02'0 0.0
2017-Dec-03 16:30N 68°56' E 033°02'0 0.0
2017-Dec-03 16:00N 68°56' E 033°02'0 0.0
2017-Dec-03 15:30N 68°56' E 033°02'0 0.0
2017-Dec-03 15:00N 68°56' E 033°02'0 0.0
2017-Dec-03 14:30N 68°56' E 033°02'0 0.0
2017-Dec-03 14:00N 68°56' E 033°02'0 0.0
2017-Dec-03 13:29N 68°56' E 033°02'0 0.0
2017-Dec-03 13:00N 68°56' E 033°02'0 0.0
2017-Dec-03 12:30N 68°56' E 033°02'0 0.0
2017-Dec-03 12:00N 68°56' E 033°02'0 0.0
2017-Dec-03 11:31N 68°56' E 033°02'0 0.0
2017-Dec-03 11:00N 68°56' E 033°02'0 0.0
2017-Dec-03 10:30N 68°56' E 033°02'0 0.0
2017-Dec-03 10:00N 68°56' E 033°02'0 0.0
2017-Dec-03 09:30N 68°56' E 033°02'0 0.0
2017-Dec-03 09:00N 68°56' E 033°02'0 0.0
2017-Dec-03 08:30N 68°56' E 033°02'0 0.0
2017-Dec-03 08:00N 68°56' E 033°02'0 0.0
2017-Dec-03 07:30N 68°56' E 033°02'0 0.0
2017-Dec-03 07:00N 68°56' E 033°02'0 0.0
2017-Dec-03 06:30N 68°56' E 033°02'0 0.0
2017-Dec-03 06:00N 68°56' E 033°02'0 0.0
2017-Dec-03 05:30N 68°56' E 033°02'0 0.0
2017-Dec-03 05:00N 68°56' E 033°02'0 0.0
2017-Dec-03 04:30N 68°56' E 033°02'0 0.0
2017-Dec-03 04:00N 68°56' E 033°02'0 0.0
2017-Dec-03 03:30N 68°56' E 033°02'0 0.0
2017-Dec-03 03:00N 68°56' E 033°02'0 0.0
2017-Dec-03 02:30N 68°56' E 033°02'0 0.0
2017-Dec-03 02:00N 68°56' E 033°02'0 0.0
2017-Dec-03 01:30N 68°56' E 033°02'0 0.0
2017-Dec-03 01:00N 68°56' E 033°02'0 0.0
2017-Dec-03 00:31N 68°56' E 033°02'0 0.0
2017-Dec-03 00:00N 68°56' E 033°02'0 0.0
2017-Dec-02 23:30N 68°56' E 033°02'0 0.0
2017-Dec-02 23:01N 68°56' E 033°02'0 0.0
2017-Dec-02 22:30N 68°56' E 033°02'0 0.0
2017-Dec-02 22:00N 68°56' E 033°02'1 1.5
2017-Dec-02 21:29N 68°57' E 033°01'4 8.7
2017-Dec-02 21:00N 69°01' E 033°03'  
Track history (hours):
 
Tides and Currents Weather Stations Pressure Air Temp Water Temp Dewpoint Dewpoint Depression Visibility Wind Speed Wind Dir Waves Ship Positions

Kotoyarvi

Last reported at 2017-Dec-11 17:00 UTC. Time now 2017-Dec-14 15:21 UTC.
Position N 69°44' E 030°05'.

Length 45 m; draft 4.4 m.

Type: Fishing. MMSI: 273440730.

Date/timePositionNaut miles runAvg speedWind from/ knotsBaromVisibWave heightAir tempDewpointWater temp
2017-Dec-11 17:00N 69°44' E 030°05'0 0.0
2017-Dec-11 16:30N 69°44' E 030°05'0 0.0
2017-Dec-11 15:58N 69°44' E 030°05'0 0.0
2017-Dec-11 15:29N 69°44' E 030°05'0 0.0
2017-Dec-11 15:00N 69°44' E 030°05'0 0.0
2017-Dec-11 14:30N 69°44' E 030°05'0 0.0
2017-Dec-11 13:58N 69°44' E 030°05'0 0.0
2017-Dec-11 13:28N 69°44' E 030°05'0 0.0
2017-Dec-11 13:00N 69°44' E 030°05'0 0.0
2017-Dec-11 12:30N 69°44' E 030°05'0 0.0
2017-Dec-11 12:00N 69°44' E 030°05'0 0.0
2017-Dec-11 11:28N 69°44' E 030°05'0 0.0
2017-Dec-11 11:00N 69°44' E 030°05'0 0.0
2017-Dec-11 10:30N 69°44' E 030°05'3 6.4
2017-Dec-11 10:00N 69°47' E 030°05'5 9.4
2017-Dec-11 09:30N 69°52' E 030°07'4 8.8
2017-Dec-11 09:00N 69°55' E 030°14'5 9.5
2017-Dec-11 08:30N 69°57' E 030°26'5 9.6
2017-Dec-11 08:00N 69°60' E 030°39'5 9.7
2017-Dec-11 07:30N 70°02' E 030°51'5 9.9
2017-Dec-11 07:00N 70°04' E 031°04'5 9.7
2017-Dec-11 06:30N 70°06' E 031°17'5 9.7
2017-Dec-11 06:00N 70°09' E 031°29'5 9.9
2017-Dec-11 05:30N 70°10' E 031°44'510.4
2017-Dec-11 05:00N 70°10' E 031°59'71 8.1
2017-Dec-10 20:17N 69°03' E 033°05'2 5.9
2017-Dec-10 20:00N 69°02' E 033°03'3 6.1
2017-Dec-10 19:31N 68°59' E 033°02'2 4.5
2017-Dec-10 18:58N 68°56' E 033°02'0 0.0
2017-Dec-10 18:28N 68°56' E 033°02'0 0.0
2017-Dec-10 17:58N 68°56' E 033°02'0 0.0
2017-Dec-10 17:28N 68°56' E 033°02'0 0.0
2017-Dec-10 16:58N 68°56' E 033°02'0 0.0
2017-Dec-10 16:28N 68°56' E 033°02'0 0.0
2017-Dec-10 15:58N 68°56' E 033°02'0 0.0
2017-Dec-10 15:28N 68°56' E 033°02'0 0.0
2017-Dec-10 14:58N 68°56' E 033°02'0 0.0
2017-Dec-10 14:28N 68°56' E 033°02'0 0.0
2017-Dec-10 13:58N 68°56' E 033°02'0 0.0
2017-Dec-10 13:28N 68°56' E 033°02'0 0.0
2017-Dec-10 12:58N 68°56' E 033°02'0 0.0
2017-Dec-10 12:28N 68°56' E 033°02'0 0.0
2017-Dec-10 11:58N 68°56' E 033°02'0 0.0
2017-Dec-10 11:28N 68°56' E 033°02'0 0.0
2017-Dec-10 10:58N 68°56' E 033°02'0 0.0
2017-Dec-10 10:28N 68°56' E 033°02'0 0.0
2017-Dec-10 09:58N 68°56' E 033°02'0 0.0
2017-Dec-10 09:25N 68°56' E 033°02'0 0.0
2017-Dec-10 08:58N 68°56' E 033°02'0 0.0
2017-Dec-10 08:28N 68°56' E 033°02'0 0.0
2017-Dec-10 07:58N 68°56' E 033°02'0 0.0
2017-Dec-10 07:28N 68°56' E 033°02'0 0.0
2017-Dec-10 06:58N 68°56' E 033°02'0 0.0
2017-Dec-10 06:28N 68°56' E 033°02'0 0.0
2017-Dec-10 05:58N 68°56' E 033°02'0 0.0
2017-Dec-10 05:28N 68°56' E 033°02'0 0.0
2017-Dec-10 04:58N 68°56' E 033°02'0 0.0
2017-Dec-10 04:28N 68°56' E 033°02'0 0.0
2017-Dec-10 03:58N 68°56' E 033°02'0 0.0
2017-Dec-10 03:28N 68°56' E 033°02'0 0.0
2017-Dec-10 02:58N 68°56' E 033°02'0 0.0
2017-Dec-10 02:28N 68°56' E 033°02'0 0.0
2017-Dec-10 01:58N 68°56' E 033°02'0 0.0
2017-Dec-10 01:28N 68°56' E 033°02'0 0.0
2017-Dec-10 00:58N 68°56' E 033°02'0 0.0
2017-Dec-10 00:28N 68°56' E 033°02'0 0.0
2017-Dec-09 23:58N 68°56' E 033°02'0 0.0
2017-Dec-09 23:28N 68°56' E 033°02'0 0.0
2017-Dec-09 22:55N 68°56' E 033°02'0 0.0
2017-Dec-09 22:28N 68°56' E 033°02'0 0.0
2017-Dec-09 21:58N 68°56' E 033°02'0 0.0
2017-Dec-09 21:28N 68°56' E 033°02'0 0.0
2017-Dec-09 20:58N 68°56' E 033°02'0 0.0
2017-Dec-09 20:28N 68°56' E 033°02'0 0.0
2017-Dec-09 19:58N 68°56' E 033°02'0 0.0
2017-Dec-09 19:28N 68°56' E 033°02'0 0.0
2017-Dec-09 18:58N 68°56' E 033°02'0 0.0
2017-Dec-09 18:28N 68°56' E 033°02'0 0.0
2017-Dec-09 17:58N 68°56' E 033°02'0 0.0
2017-Dec-09 17:28N 68°56' E 033°02'0 0.0
2017-Dec-09 16:58N 68°56' E 033°02'0 0.0
2017-Dec-09 16:28N 68°56' E 033°02'0 0.0
2017-Dec-09 15:58N 68°56' E 033°02'0 0.0
2017-Dec-09 15:28N 68°56' E 033°02'0 0.0
2017-Dec-09 14:58N 68°56' E 033°02'0 0.0
2017-Dec-09 14:28N 68°56' E 033°02'0 0.0
2017-Dec-09 13:58N 68°56' E 033°02'0 0.0
2017-Dec-09 13:28N 68°56' E 033°02'0 0.0
2017-Dec-09 12:58N 68°56' E 033°02'0 0.0
2017-Dec-09 12:28N 68°56' E 033°02'0 0.0
2017-Dec-09 11:58N 68°56' E 033°02'0 0.0
2017-Dec-09 11:25N 68°56' E 033°02'0 0.0
2017-Dec-09 10:58N 68°56' E 033°02'0 0.0
2017-Dec-09 10:28N 68°56' E 033°02'0 0.0
2017-Dec-09 09:58N 68°56' E 033°02'0 0.0
2017-Dec-09 09:28N 68°56' E 033°02'0 0.0
2017-Dec-09 08:58N 68°56' E 033°02'0 0.0
2017-Dec-09 08:28N 68°56' E 033°02'0 0.0
2017-Dec-09 07:58N 68°56' E 033°02'0 0.0
2017-Dec-09 07:28N 68°56' E 033°02'0 0.0
2017-Dec-09 06:58N 68°56' E 033°02'0 0.0
2017-Dec-09 06:28N 68°56' E 033°02'0 0.0
2017-Dec-09 05:58N 68°56' E 033°02'0 0.0
2017-Dec-09 05:28N 68°56' E 033°02'0 0.0
2017-Dec-09 04:58N 68°56' E 033°02'0 0.0
2017-Dec-09 04:28N 68°56' E 033°02'0 0.0
2017-Dec-09 03:58N 68°56' E 033°02'0 0.0
2017-Dec-09 03:28N 68°56' E 033°02'0 0.0
2017-Dec-09 02:58N 68°56' E 033°02'0 0.0
2017-Dec-09 02:28N 68°56' E 033°02'0 0.0
2017-Dec-09 01:58N 68°56' E 033°02'0 0.0
2017-Dec-09 01:28N 68°56' E 033°02'0 0.0
2017-Dec-09 00:58N 68°56' E 033°02'0 0.0
2017-Dec-09 00:28N 68°56' E 033°02'0 0.0
2017-Dec-08 23:58N 68°56' E 033°02'0 0.0
2017-Dec-08 23:28N 68°56' E 033°02'0 0.0
2017-Dec-08 22:58N 68°56' E 033°02'0 0.0
2017-Dec-08 22:28N 68°56' E 033°02'0 0.0
2017-Dec-08 21:58N 68°56' E 033°02'0 0.0
2017-Dec-08 21:28N 68°56' E 033°02'0 0.0
2017-Dec-08 20:58N 68°56' E 033°02'0 0.0
2017-Dec-08 20:28N 68°56' E 033°02'0 0.0
2017-Dec-08 19:58N 68°56' E 033°02'0 0.0
2017-Dec-08 19:28N 68°56' E 033°02'0 0.0
2017-Dec-08 18:58N 68°56' E 033°02'0 0.0
2017-Dec-08 18:28N 68°56' E 033°02'0 0.0
2017-Dec-08 17:58N 68°56' E 033°02'0 0.0
2017-Dec-08 17:28N 68°56' E 033°02'0 0.0
2017-Dec-08 16:52N 68°56' E 033°02'0 0.0
2017-Dec-08 16:28N 68°56' E 033°02'0 0.0
2017-Dec-08 15:58N 68°56' E 033°02'0 0.0
2017-Dec-08 15:28N 68°56' E 033°02'0 0.0
2017-Dec-08 14:58N 68°56' E 033°02'0 0.0
2017-Dec-08 14:28N 68°56' E 033°02'0 0.0
2017-Dec-08 13:58N 68°56' E 033°02'0 0.0
2017-Dec-08 13:28N 68°56' E 033°02'0 0.0
2017-Dec-08 12:58N 68°56' E 033°02'0 0.0
2017-Dec-08 12:28N 68°56' E 033°02'0 0.0
2017-Dec-08 11:58N 68°56' E 033°02'0 0.0
2017-Dec-08 11:28N 68°56' E 033°02'0 0.0
2017-Dec-08 10:58N 68°56' E 033°02'0 0.0
2017-Dec-08 10:28N 68°56' E 033°02'0 0.0
2017-Dec-08 09:58N 68°56' E 033°02'0 0.0
2017-Dec-08 09:28N 68°56' E 033°02'0 0.0
2017-Dec-08 08:58N 68°56' E 033°02'0 0.0
2017-Dec-08 08:28N 68°56' E 033°02'0 0.0
2017-Dec-08 07:58N 68°56' E 033°02'0 0.0
2017-Dec-08 07:28N 68°56' E 033°02'0 0.0
2017-Dec-08 06:58N 68°56' E 033°02'0 0.0
2017-Dec-08 06:28N 68°56' E 033°02'0 0.0
2017-Dec-08 05:58N 68°56' E 033°02'0 0.1
2017-Dec-08 05:28N 68°56' E 033°02'0 0.0
2017-Dec-08 04:58N 68°56' E 033°02'0 0.0
2017-Dec-08 04:28N 68°56' E 033°02'0 0.0
2017-Dec-08 03:58N 68°56' E 033°02'0 0.0
2017-Dec-08 03:28N 68°56' E 033°02'0 0.0
2017-Dec-08 02:55N 68°56' E 033°02'0 0.0
2017-Dec-08 02:28N 68°56' E 033°02'0 0.0
2017-Dec-08 01:58N 68°56' E 033°02'0 0.0
2017-Dec-08 01:28N 68°56' E 033°02'0 0.0
2017-Dec-08 00:58N 68°56' E 033°02'0 0.0
2017-Dec-08 00:28N 68°56' E 033°02'0 0.0
2017-Dec-07 23:58N 68°56' E 033°02'0 0.0
2017-Dec-07 23:28N 68°56' E 033°02'0 0.0
2017-Dec-07 22:58N 68°56' E 033°02'0 0.0
2017-Dec-07 22:28N 68°56' E 033°02'0 0.0
2017-Dec-07 21:58N 68°56' E 033°02'0 0.0
2017-Dec-07 21:28N 68°56' E 033°02'0 0.0
2017-Dec-07 20:58N 68°56' E 033°02'0 0.0
2017-Dec-07 20:25N 68°56' E 033°02'0 0.0
2017-Dec-07 19:58N 68°56' E 033°02'0 0.0
2017-Dec-07 19:28N 68°56' E 033°02'0 0.0
2017-Dec-07 18:58N 68°56' E 033°02'0 0.0
2017-Dec-07 18:28N 68°56' E 033°02'0 0.0
2017-Dec-07 17:58N 68°56' E 033°02'0 0.0
2017-Dec-07 17:25N 68°56' E 033°02'0 0.0
2017-Dec-07 16:58N 68°56' E 033°02'0 0.0
2017-Dec-07 16:28N 68°56' E 033°02'0 0.0
2017-Dec-07 15:58N 68°56' E 033°02'0 0.0
2017-Dec-07 15:28N 68°56' E 033°02'0 0.0
2017-Dec-07 14:58N 68°56' E 033°02'0 0.0
2017-Dec-07 14:28N 68°56' E 033°02'0 0.0
2017-Dec-07 13:58N 68°56' E 033°02'0 0.0
2017-Dec-07 13:28N 68°56' E 033°02'0 0.0
2017-Dec-07 12:58N 68°56' E 033°02'0 0.0
2017-Dec-07 12:28N 68°56' E 033°02'0 0.0
2017-Dec-07 11:58N 68°56' E 033°02'0 0.0
2017-Dec-07 11:28N 68°56' E 033°02'0 0.0
2017-Dec-07 10:58N 68°56' E 033°02'0 0.0
2017-Dec-07 10:28N 68°56' E 033°02'0 0.0
2017-Dec-07 09:58N 68°56' E 033°02'0 0.0
2017-Dec-07 09:28N 68°56' E 033°02'0 0.0
2017-Dec-07 08:58N 68°56' E 033°02'0 0.0
2017-Dec-07 08:28N 68°56' E 033°02'0 0.0
2017-Dec-07 07:58N 68°56' E 033°02'0 0.0
2017-Dec-07 07:28N 68°56' E 033°02'0 0.0
2017-Dec-07 06:58N 68°56' E 033°02'0 0.0
2017-Dec-07 06:28N 68°56' E 033°02'0 0.0
2017-Dec-07 05:58N 68°56' E 033°02'0 0.0
2017-Dec-07 05:28N 68°56' E 033°02'0 0.0
2017-Dec-07 04:58N 68°56' E 033°02'0 0.0
2017-Dec-07 04:28N 68°56' E 033°02'0 0.0
2017-Dec-07 03:58N 68°56' E 033°02'0 0.0
2017-Dec-07 03:28N 68°56' E 033°02'0 0.0
2017-Dec-07 02:58N 68°56' E 033°02'0 0.0
2017-Dec-07 02:28N 68°56' E 033°02'0 0.0
2017-Dec-07 01:58N 68°56' E 033°02'0 0.0
2017-Dec-07 01:28N 68°56' E 033°02'0 0.0
2017-Dec-07 00:58N 68°56' E 033°02'0 0.0
2017-Dec-07 00:28N 68°56' E 033°02'0 0.0
2017-Dec-06 23:58N 68°56' E 033°02'0 0.0
2017-Dec-06 23:28N 68°56' E 033°02'0 0.0
2017-Dec-06 22:58N 68°56' E 033°02'0 0.0
2017-Dec-06 22:28N 68°56' E 033°02'0 0.0
2017-Dec-06 21:58N 68°56' E 033°02'0 0.0
2017-Dec-06 21:28N 68°56' E 033°02'0 0.0
2017-Dec-06 20:58N 68°56' E 033°02'  
2017-Dec-04 10:22N 68°56' E 033°02'0 0.0
2017-Dec-04 09:58N 68°56' E 033°02'0 0.0
2017-Dec-04 09:28N 68°56' E 033°02'0 0.0
2017-Dec-04 08:58N 68°56' E 033°02'0 0.0
2017-Dec-04 08:28N 68°56' E 033°02'0 0.0
2017-Dec-04 07:58N 68°56' E 033°02'0 0.0
2017-Dec-04 07:25N 68°56' E 033°02'0 0.0
2017-Dec-04 06:58N 68°56' E 033°02'0 0.0
2017-Dec-04 06:28N 68°56' E 033°02'0 0.0
2017-Dec-04 05:58N 68°56' E 033°02'0 0.0
2017-Dec-04 05:30N 68°56' E 033°02'0 0.0
2017-Dec-04 05:00N 68°56' E 033°02'0 0.0
2017-Dec-04 04:29N 68°56' E 033°02'0 0.0
2017-Dec-04 04:00N 68°56' E 033°02'0 0.0
2017-Dec-04 03:31N 68°56' E 033°02'0 0.0
2017-Dec-04 03:00N 68°56' E 033°02'0 0.0
2017-Dec-04 02:31N 68°56' E 033°02'0 0.0
2017-Dec-04 02:00N 68°56' E 033°02'0 0.0
2017-Dec-04 01:30N 68°56' E 033°02'0 0.0
2017-Dec-04 01:00N 68°56' E 033°02'0 0.0
2017-Dec-04 00:30N 68°56' E 033°02'0 0.0
2017-Dec-04 00:00N 68°56' E 033°02'0 0.0
2017-Dec-03 23:30N 68°56' E 033°02'0 0.0
2017-Dec-03 23:00N 68°56' E 033°02'0 0.0
2017-Dec-03 22:29N 68°56' E 033°02'0 0.0
2017-Dec-03 22:00N 68°56' E 033°02'0 0.0
2017-Dec-03 21:30N 68°56' E 033°02'0 0.0
2017-Dec-03 21:00N 68°56' E 033°02'0 0.0
2017-Dec-03 20:30N 68°56' E 033°02'0 0.0
2017-Dec-03 20:00N 68°56' E 033°02'0 0.0
2017-Dec-03 19:31N 68°56' E 033°02'0 0.0
2017-Dec-03 19:00N 68°56' E 033°02'0 0.0
2017-Dec-03 18:31N 68°56' E 033°02'0 0.0
2017-Dec-03 18:00N 68°56' E 033°02'0 0.0
2017-Dec-03 17:30N 68°56' E 033°02'0 0.0
2017-Dec-03 17:00N 68°56' E 033°02'0 0.0
2017-Dec-03 16:30N 68°56' E 033°02'0 0.0
2017-Dec-03 16:00N 68°56' E 033°02'0 0.0
2017-Dec-03 15:30N 68°56' E 033°02'0 0.0
2017-Dec-03 15:00N 68°56' E 033°02'0 0.0
2017-Dec-03 14:30N 68°56' E 033°02'0 0.0
2017-Dec-03 14:00N 68°56' E 033°02'0 0.0
2017-Dec-03 13:29N 68°56' E 033°02'0 0.0
2017-Dec-03 13:00N 68°56' E 033°02'0 0.0
2017-Dec-03 12:30N 68°56' E 033°02'0 0.0
2017-Dec-03 12:00N 68°56' E 033°02'0 0.0
2017-Dec-03 11:31N 68°56' E 033°02'0 0.0
2017-Dec-03 11:00N 68°56' E 033°02'0 0.0
2017-Dec-03 10:30N 68°56' E 033°02'0 0.0
2017-Dec-03 10:00N 68°56' E 033°02'0 0.0
2017-Dec-03 09:30N 68°56' E 033°02'0 0.0
2017-Dec-03 09:00N 68°56' E 033°02'0 0.0
2017-Dec-03 08:30N 68°56' E 033°02'0 0.0
2017-Dec-03 08:00N 68°56' E 033°02'0 0.0
2017-Dec-03 07:30N 68°56' E 033°02'0 0.0
2017-Dec-03 07:00N 68°56' E 033°02'0 0.0
2017-Dec-03 06:30N 68°56' E 033°02'0 0.0
2017-Dec-03 06:00N 68°56' E 033°02'0 0.0
2017-Dec-03 05:30N 68°56' E 033°02'0 0.0
2017-Dec-03 05:00N 68°56' E 033°02'0 0.0
2017-Dec-03 04:30N 68°56' E 033°02'0 0.0
2017-Dec-03 04:00N 68°56' E 033°02'0 0.0
2017-Dec-03 03:30N 68°56' E 033°02'0 0.0
2017-Dec-03 03:00N 68°56' E 033°02'0 0.0
2017-Dec-03 02:30N 68°56' E 033°02'0 0.0
2017-Dec-03 02:00N 68°56' E 033°02'0 0.0
2017-Dec-03 01:30N 68°56' E 033°02'0 0.0
2017-Dec-03 01:00N 68°56' E 033°02'0 0.0
2017-Dec-03 00:31N 68°56' E 033°02'0 0.0
2017-Dec-03 00:00N 68°56' E 033°02'0 0.0
2017-Dec-02 23:30N 68°56' E 033°02'0 0.0
2017-Dec-02 23:01N 68°56' E 033°02'0 0.0
2017-Dec-02 22:30N 68°56' E 033°02'0 0.0
2017-Dec-02 22:00N 68°56' E 033°02'1 1.5
2017-Dec-02 21:29N 68°57' E 033°01'4 8.7
2017-Dec-02 21:00N 69°01' E 033°03'  

Dump ship's entire track history